Terminal Aerodrome Forecast
Issued by NWS

Current Version | Previous Version | Text Only | Print | Product List | Glossary On
Versions: 1 2 3 4 5 6 7 8 9 10 11 12 13 14 15
000
FTUS43 KICT 162300
TAFSLN
TAF
KSLN 162322Z 1700/1724 15009KT P6SM SCT040
     FM170600 17008KT 5SM BR VCTS SCT011 BKN020CB
     FM171500 19007KT P6SM SCT040
      TEMPO 1715/1718 BKN025=

USA.gov is the U.S. government's official web portal to all federal, state and local government web resources and services.